Time;durP1;ratioP1;P1;durP2;ratioP2;P2;SDS_P1;SDS_P2;PMS_P1;PMS_P2;Temp;Humidity;BMP_temperature;BMP_pressure;BME280_temperature;BME280_humidity;BME280_pressure;Samples;Min_cycle;Max_cycle;Signal;HPM_P1;HPM_P2
2021/05/01 06:25:27;;;;;;;1.10;0.90;;;;;;;;;;5100772;27;20581;-72
2021/05/01 06:27:54;;;;;;;1.10;0.70;;;;;;;;;;5103429;28;20273;-73
2021/05/01 06:30:20;;;;;;;1.10;0.80;;;;;;;;;;5094698;28;20186;-73
2021/05/01 06:32:47;;;;;;;1.10;0.70;;;;;;;;;;5094074;28;20256;-73
2021/05/01 06:35:13;;;;;;;1.10;0.80;;;;;;;;;;5101151;28;20204;-73
2021/05/01 06:37:40;;;;;;;1.20;1.00;;;;;;;;;;5109338;28;20663;-73
2021/05/01 06:40:09;;;;;;;1.10;0.80;;;;;;;;;;5100548;28;20643;-73
2021/05/01 06:42:38;;;;;;;1.10;0.80;;;;;;;;;;5118925;27;20175;-73
2021/05/01 06:45:08;;;;;;;1.10;0.70;;;;;;;;;;5105488;27;20230;-73
2021/05/01 06:47:37;;;;;;;1.10;0.80;;;;;;;;;;5099760;28;20181;-73
2021/05/01 06:50:12;;;;;;;2.00;1.75;;;;;;;;;;5099492;28;20263;-73
2021/05/01 06:52:39;;;;;;;1.10;0.80;;;;;;;;;;5093449;28;20232;-73
2021/05/01 06:55:06;;;;;;;1.10;0.80;;;;;;;;;;5087121;28;20187;-73
2021/05/01 06:57:32;;;;;;;1.10;0.85;;;;;;;;;;5089643;28;20199;-73
2021/05/01 06:59:59;;;;;;;1.10;0.70;;;;;;;;;;5095604;28;20265;-73
2021/05/01 07:02:25;;;;;;;1.10;0.70;;;;;;;;;;5100544;28;20904;-73
2021/05/01 07:04:52;;;;;;;1.10;0.80;;;;;;;;;;5088932;28;20203;-73
2021/05/01 07:07:20;;;;;;;1.10;0.70;;;;;;;;;;5108502;28;20183;-73
2021/05/01 07:09:47;;;;;;;1.10;0.80;;;;;;;;;;5108293;28;20638;-73
2021/05/01 07:12:13;;;;;;;1.10;0.70;;;;;;;;;;5108234;28;20175;-73
2021/05/01 07:14:41;;;;;;;1.10;0.80;;;;;;;;;;5103970;28;20194;-73
2021/05/01 07:17:07;;;;;;;1.10;0.80;;;;;;;;;;5105594;28;20292;-73
2021/05/01 07:19:33;;;;;;;1.10;0.80;;;;;;;;;;5087373;28;20204;-73
2021/05/01 07:21:59;;;;;;;1.10;0.70;;;;;;;;;;5107380;27;20206;-73
2021/05/01 07:24:26;;;;;;;1.10;0.80;;;;;;;;;;5109124;28;20203;-73
2021/05/01 07:26:54;;;;;;;1.10;0.70;;;;;;;;;;5088112;28;20449;-73
2021/05/01 07:29:20;;;;;;;1.10;0.80;;;;;;;;;;5111184;28;20229;-73
2021/05/01 07:31:46;;;;;;;1.10;0.70;;;;;;;;;;5128466;28;20271;-73
2021/05/01 07:34:19;;;;;;;1.20;1.10;;;;;;;;;;5112075;27;20183;-74
2021/05/01 07:36:47;;;;;;;1.10;0.70;;;;;;;;;;5075683;28;20208;-73
2021/05/01 07:39:15;;;;;;;1.10;0.70;;;;;;;;;;5094627;28;20591;-74
2021/05/01 07:41:43;;;;;;;1.10;0.80;;;;;;;;;;5089606;28;20643;-74
2021/05/01 07:44:09;;;;;;;1.10;0.88;;;;;;;;;;5074401;28;20211;-73
2021/05/01 07:46:38;;;;;;;1.10;0.80;;;;;;;;;;5094018;28;20531;-72
2021/05/01 07:49:05;;;;;;;1.10;0.70;;;;;;;;;;5088690;28;20616;-72
2021/05/01 07:51:34;;;;;;;1.10;0.70;;;;;;;;;;5089488;28;20173;-72
2021/05/01 07:54:00;;;;;;;1.10;0.70;;;;;;;;;;5101362;28;20168;-73
2021/05/01 07:56:26;;;;;;;1.10;0.70;;;;;;;;;;5109880;28;20251;-72
2021/05/01 07:58:52;;;;;;;1.10;0.70;;;;;;;;;;5097552;28;20981;-74
2021/05/01 08:01:18;;;;;;;1.63;1.53;;;;;;;;;;5093986;28;20550;-73
2021/05/01 08:03:45;;;;;;;1.00;0.70;;;;;;;;;;5091709;28;20420;-73
2021/05/01 08:06:11;;;;;;;1.00;0.70;;;;;;;;;;5072322;28;20193;-73
2021/05/01 08:08:37;;;;;;;1.00;0.70;;;;;;;;;;5102875;28;20199;-72
2021/05/01 08:11:03;;;;;;;1.00;0.70;;;;;;;;;;5088487;28;20416;-72
2021/05/01 08:13:29;;;;;;;1.00;0.70;;;;;;;;;;5073782;28;20513;-72
2021/05/01 08:15:55;;;;;;;1.30;1.20;;;;;;;;;;5079942;28;20207;-73
2021/05/01 08:18:21;;;;;;;1.00;0.70;;;;;;;;;;5098860;28;20426;-72
2021/05/01 08:20:49;;;;;;;1.00;0.70;;;;;;;;;;5077481;28;20181;-73
2021/05/01 08:23:15;;;;;;;1.00;0.70;;;;;;;;;;5073261;28;20455;-72
2021/05/01 08:25:41;;;;;;;1.00;0.70;;;;;;;;;;5077523;28;20678;-72
2021/05/01 08:28:07;;;;;;;1.00;0.70;;;;;;;;;;5093794;28;20772;-73
2021/05/01 08:30:33;;;;;;;1.00;0.70;;;;;;;;;;5079574;28;20181;-73
2021/05/01 08:32:59;;;;;;;1.75;1.60;;;;;;;;;;5073049;28;20181;-73
2021/05/01 08:35:25;;;;;;;1.10;0.80;;;;;;;;;;5081389;28;20199;-73
2021/05/01 08:37:51;;;;;;;1.00;0.60;;;;;;;;;;5083739;28;20426;-73
2021/05/01 08:40:17;;;;;;;1.00;0.70;;;;;;;;;;5073994;28;20396;-73
2021/05/01 08:42:44;;;;;;;1.00;0.60;;;;;;;;;;5085947;28;20180;-73
2021/05/01 08:45:11;;;;;;;1.50;1.40;;;;;;;;;;5089130;28;20523;-73
2021/05/01 08:47:44;;;;;;;0.93;0.60;;;;;;;;;;5089588;28;20338;-73
2021/05/01 08:50:37;;;;;;;0.90;0.60;;;;;;;;;;5094641;28;20603;-73
2021/05/01 08:53:03;;;;;;;1.10;0.80;;;;;;;;;;5089187;28;20667;-73
2021/05/01 08:55:35;;;;;;;0.90;0.60;;;;;;;;;;5081002;28;20612;-73
2021/05/01 08:58:01;;;;;;;0.90;0.60;;;;;;;;;;5073014;28;20214;-73
2021/05/01 09:00:28;;;;;;;0.90;0.70;;;;;;;;;;5088058;28;20180;-73
2021/05/01 09:02:55;;;;;;;0.90;0.70;;;;;;;;;;5091593;28;20253;-71
2021/05/01 09:05:24;;;;;;;0.90;0.70;;;;;;;;;;5092722;28;20208;-73
2021/05/01 09:07:50;;;;;;;0.90;0.70;;;;;;;;;;5056142;22;20225;-76
2021/05/01 09:10:16;;;;;;;0.90;0.70;;;;;;;;;;5032421;28;20270;-76
2021/05/01 09:12:46;;;;;;;0.90;0.70;;;;;;;;;;5030692;28;20214;-76
2021/05/01 09:15:17;;;;;;;1.42;1.33;;;;;;;;;;5032619;28;20436;-76
2021/05/01 09:17:45;;;;;;;0.80;0.60;;;;;;;;;;5047969;28;20212;-76
2021/05/01 09:20:13;;;;;;;0.80;0.60;;;;;;;;;;5044727;28;20178;-76
2021/05/01 09:22:56;;;;;;;0.80;0.60;;;;;;;;;;5051270;28;20178;-76
2021/05/01 09:25:22;;;;;;;0.80;0.73;;;;;;;;;;5045648;28;20210;-75
2021/05/01 09:27:58;;;;;;;0.80;0.60;;;;;;;;;;5046942;28;20199;-75
2021/05/01 09:30:27;;;;;;;0.80;0.60;;;;;;;;;;5051569;28;20260;-76
2021/05/01 09:33:13;;;;;;;0.80;0.70;;;;;;;;;;5050914;28;20182;-75
2021/05/01 09:35:39;;;;;;;0.80;0.65;;;;;;;;;;5050381;28;20186;-75
2021/05/01 09:38:06;;;;;;;0.80;0.60;;;;;;;;;;5049309;28;20570;-76
2021/05/01 09:40:32;;;;;;;0.80;0.60;;;;;;;;;;5050806;28;20405;-75
2021/05/01 09:43:08;;;;;;;1.20;0.90;;;;;;;;;;5043909;28;20174;-75
2021/05/01 09:45:34;;;;;;;0.80;0.60;;;;;;;;;;5051722;28;20411;-76
2021/05/01 09:48:10;;;;;;;0.80;0.70;;;;;;;;;;5051186;28;20248;-75
2021/05/01 09:50:36;;;;;;;0.80;0.60;;;;;;;;;;5046572;28;20418;-76
2021/05/01 09:53:03;;;;;;;0.80;0.70;;;;;;;;;;5046482;28;20450;-76
2021/05/01 09:55:42;;;;;;;0.80;0.60;;;;;;;;;;5052300;28;20788;-75
2021/05/01 09:58:15;;;;;;;0.80;0.60;;;;;;;;;;5050511;28;20198;-75
2021/05/01 10:00:41;;;;;;;0.80;0.60;;;;;;;;;;5052202;28;20181;-75
2021/05/01 10:03:27;;;;;;;0.80;0.60;;;;;;;;;;5051695;28;20186;-76
2021/05/01 10:05:55;;;;;;;0.80;0.70;;;;;;;;;;5045033;28;20608;-77
2021/05/01 10:08:22;;;;;;;0.80;0.60;;;;;;;;;;5059061;28;20468;-82
2021/05/01 10:10:49;;;;;;;0.80;0.60;;;;;;;;;;5058179;28;20428;-78
2021/05/01 10:13:15;;;;;;;0.80;0.60;;;;;;;;;;5056471;28;20385;-79
2021/05/01 10:15:42;;;;;;;0.80;0.60;;;;;;;;;;5060621;28;20430;-79
2021/05/01 10:18:09;;;;;;;0.80;0.60;;;;;;;;;;5061165;28;20417;-80
2021/05/01 10:20:43;;;;;;;0.80;0.60;;;;;;;;;;5059930;28;20415;-76
2021/05/01 10:23:09;;;;;;;0.70;0.60;;;;;;;;;;5058466;28;20479;-77
2021/05/01 10:25:36;;;;;;;0.70;0.60;;;;;;;;;;5056150;28;20486;-78
2021/05/01 10:28:08;;;;;;;0.70;0.60;;;;;;;;;;5056278;28;20417;-80
2021/05/01 10:30:47;;;;;;;0.70;0.60;;;;;;;;;;5056946;28;20439;-79
2021/05/01 10:35:57;;;;;;;0.70;0.60;;;;;;;;;;5036720;28;20904;-79
2021/05/01 10:38:23;;;;;;;0.70;0.60;;;;;;;;;;5050832;28;20860;-79
2021/05/01 10:40:51;;;;;;;0.70;0.60;;;;;;;;;;5056042;28;20447;-79
2021/05/01 10:43:24;;;;;;;0.70;0.50;;;;;;;;;;5054719;28;20506;-79
2021/05/01 10:45:50;;;;;;;0.70;0.60;;;;;;;;;;5036228;28;20486;-79
2021/05/01 10:48:16;;;;;;;1.10;1.00;;;;;;;;;;5037038;28;20419;-79
2021/05/01 10:50:42;;;;;;;0.60;0.50;;;;;;;;;;5044649;28;20432;-79
2021/05/01 10:53:17;;;;;;;0.60;0.60;;;;;;;;;;5055753;28;20444;-78
2021/05/01 10:55:44;;;;;;;0.70;0.70;;;;;;;;;;5051670;28;20429;-78
2021/05/01 10:58:10;;;;;;;0.60;0.50;;;;;;;;;;5051807;28;20429;-78
2021/05/01 11:00:41;;;;;;;0.60;0.60;;;;;;;;;;5054550;28;20930;-78
2021/05/01 11:03:08;;;;;;;0.70;0.67;;;;;;;;;;5055418;28;20431;-78
2021/05/01 11:05:40;;;;;;;0.60;0.60;;;;;;;;;;5054618;28;20471;-79
2021/05/01 11:08:19;;;;;;;0.73;0.73;;;;;;;;;;5054938;28;20471;-78
2021/05/01 11:10:47;;;;;;;0.60;0.60;;;;;;;;;;5055926;28;20415;-79
2021/05/01 11:13:15;;;;;;;0.60;0.50;;;;;;;;;;5050608;28;20462;-78
2021/05/01 11:15:50;;;;;;;1.57;1.47;;;;;;;;;;5057464;28;20424;-79
2021/05/01 11:18:19;;;;;;;0.60;0.50;;;;;;;;;;5039539;28;20401;-78
2021/05/01 11:20:46;;;;;;;0.90;0.73;;;;;;;;;;5056831;28;20433;-78
2021/05/01 11:23:13;;;;;;;0.60;0.50;;;;;;;;;;5058296;28;20431;-78
2021/05/01 11:25:40;;;;;;;0.60;0.60;;;;;;;;;;5058649;28;20408;-78
2021/05/01 11:28:06;;;;;;;0.60;0.60;;;;;;;;;;5057735;28;20858;-78
2021/05/01 11:30:33;;;;;;;0.60;0.50;;;;;;;;;;5056599;28;20894;-77
2021/05/01 11:32:59;;;;;;;0.60;0.60;;;;;;;;;;5056732;28;20415;-78
2021/05/01 11:35:26;;;;;;;0.67;0.60;;;;;;;;;;5056470;28;20426;-78
2021/05/01 11:37:54;;;;;;;0.60;0.50;;;;;;;;;;5054832;28;20451;-76
2021/05/01 11:40:22;;;;;;;0.80;0.80;;;;;;;;;;5044616;28;20474;-77
2021/05/01 11:42:48;;;;;;;0.90;0.90;;;;;;;;;;5044574;28;20401;-77
2021/05/01 11:45:18;;;;;;;0.90;0.70;;;;;;;;;;5052219;28;20448;-78
2021/05/01 11:47:49;;;;;;;0.60;0.53;;;;;;;;;;5055948;28;20471;-78
2021/05/01 11:50:16;;;;;;;0.60;0.50;;;;;;;;;;5054932;28;20458;-78
2021/05/01 11:52:57;;;;;;;0.60;0.60;;;;;;;;;;5054175;28;20420;-78
2021/05/01 11:55:33;;;;;;;0.60;0.60;;;;;;;;;;5054884;28;20431;-78
2021/05/01 11:58:00;;;;;;;0.60;0.50;;;;;;;;;;5040186;28;20902;-77
2021/05/01 12:00:27;;;;;;;0.60;0.50;;;;;;;;;;5036372;28;20431;-77
2021/05/01 12:02:53;;;;;;;0.60;0.57;;;;;;;;;;5042275;28;20924;-77
2021/05/01 12:05:40;;;;;;;0.60;0.50;;;;;;;;;;5053613;28;21039;-77
2021/05/01 12:08:09;;;;;;;0.60;0.60;;;;;;;;;;5055284;28;20958;-79
2021/05/01 12:10:41;;;;;;;0.60;0.50;;;;;;;;;;5057612;28;20849;-77
2021/05/01 12:13:15;;;;;;;0.60;0.50;;;;;;;;;;5048074;28;20425;-77
2021/05/01 12:15:48;;;;;;;0.60;0.50;;;;;;;;;;5039149;28;20417;-78
2021/05/01 12:18:14;;;;;;;0.60;0.50;;;;;;;;;;5056037;28;20424;-78
2021/05/01 12:20:40;;;;;;;0.60;0.53;;;;;;;;;;5057415;28;20428;-78
2021/05/01 12:23:13;;;;;;;0.60;0.50;;;;;;;;;;5055905;28;20491;-78
2021/05/01 12:25:41;;;;;;;0.60;0.50;;;;;;;;;;5055045;28;20463;-78
2021/05/01 12:28:10;;;;;;;0.70;0.60;;;;;;;;;;5056886;28;20422;-78
2021/05/01 12:30:37;;;;;;;0.60;0.50;;;;;;;;;;5037158;28;20900;-79
2021/05/01 12:33:21;;;;;;;0.60;0.50;;;;;;;;;;5056131;28;20428;-78
2021/05/01 12:35:48;;;;;;;0.60;0.50;;;;;;;;;;5056016;28;20414;-78
2021/05/01 12:38:15;;;;;;;0.60;0.50;;;;;;;;;;5054256;28;20425;-78
2021/05/01 12:40:41;;;;;;;0.60;0.40;;;;;;;;;;5046412;28;20431;-79
2021/05/01 12:43:25;;;;;;;0.60;0.40;;;;;;;;;;5050356;28;20458;-79
2021/05/01 12:45:51;;;;;;;0.60;0.40;;;;;;;;;;5047351;28;20519;-78
2021/05/01 12:48:36;;;;;;;0.60;0.40;;;;;;;;;;5052937;28;20456;-78
2021/05/01 12:51:12;;;;;;;1.03;1.03;;;;;;;;;;5056572;28;20781;-79
2021/05/01 12:53:39;;;;;;;0.83;0.80;;;;;;;;;;5056502;28;20941;-79
2021/05/01 12:56:24;;;;;;;0.60;0.50;;;;;;;;;;5055572;28;20451;-78
2021/05/01 12:59:10;;;;;;;0.60;0.40;;;;;;;;;;5054345;28;20466;-79
2021/05/01 13:01:36;;;;;;;0.60;0.40;;;;;;;;;;5056186;28;20465;-79
2021/05/01 13:04:11;;;;;;;0.50;0.40;;;;;;;;;;5043141;28;20594;-75
2021/05/01 13:06:37;;;;;;;0.60;0.60;;;;;;;;;;5052810;28;20447;-79
2021/05/01 13:09:04;;;;;;;0.60;0.40;;;;;;;;;;5057085;28;20472;-78
2021/05/01 13:11:30;;;;;;;0.60;0.40;;;;;;;;;;5056230;28;20418;-78
2021/05/01 13:14:15;;;;;;;0.60;0.50;;;;;;;;;;5056140;28;20874;-80
2021/05/01 13:17:16;;;;;;;0.60;0.50;;;;;;;;;;5052285;28;20861;-77
2021/05/01 13:19:46;;;;;;;0.60;0.40;;;;;;;;;;4992643;28;20465;-79
2021/05/01 13:22:15;;;;;;;0.60;0.50;;;;;;;;;;5041239;28;20427;-78
2021/05/01 13:24:41;;;;;;;0.60;0.40;;;;;;;;;;5055436;28;20438;-78
2021/05/01 13:27:08;;;;;;;0.60;0.50;;;;;;;;;;5055070;28;20452;-77
2021/05/01 13:29:44;;;;;;;0.60;0.50;;;;;;;;;;5056081;28;20426;-78
2021/05/01 13:32:11;;;;;;;0.63;0.63;;;;;;;;;;5055228;28;20464;-79
2021/05/01 13:34:39;;;;;;;0.63;0.60;;;;;;;;;;5054514;28;20498;-76
2021/05/01 13:37:05;;;;;;;0.70;0.70;;;;;;;;;;5055920;28;20522;-78
2021/05/01 13:39:32;;;;;;;0.60;0.50;;;;;;;;;;5053966;28;20431;-78
2021/05/01 13:42:12;;;;;;;0.60;0.40;;;;;;;;;;5054642;28;20420;-78
2021/05/01 13:44:45;;;;;;;0.60;0.40;;;;;;;;;;5057213;28;20530;-77
2021/05/01 13:47:22;;;;;;;0.60;0.50;;;;;;;;;;5048233;28;20483;-79
2021/05/01 13:49:49;;;;;;;0.60;0.50;;;;;;;;;;5051403;28;20442;-78
2021/05/01 13:52:31;;;;;;;0.60;0.50;;;;;;;;;;5054152;28;20432;-78
2021/05/01 13:55:16;;;;;;;0.60;0.50;;;;;;;;;;5060021;28;20461;-79
2021/05/01 13:57:42;;;;;;;0.60;0.50;;;;;;;;;;5059420;28;20463;-77
2021/05/01 14:00:12;;;;;;;0.60;0.40;;;;;;;;;;5052843;28;20427;-78
2021/05/01 14:02:39;;;;;;;0.60;0.40;;;;;;;;;;5053117;28;20428;-78
2021/05/01 14:05:06;;;;;;;0.60;0.40;;;;;;;;;;5058266;28;20436;-79
2021/05/01 14:07:32;;;;;;;0.60;0.40;;;;;;;;;;5057816;28;20485;-80
2021/05/01 14:09:58;;;;;;;0.60;0.40;;;;;;;;;;5054951;28;20431;-76
2021/05/01 14:12:31;;;;;;;0.60;0.40;;;;;;;;;;5055180;28;20429;-76
2021/05/01 14:14:57;;;;;;;0.60;0.40;;;;;;;;;;5057056;28;20479;-78
2021/05/01 14:17:27;;;;;;;0.60;0.40;;;;;;;;;;5051947;28;20429;-75
2021/05/01 14:19:57;;;;;;;0.60;0.50;;;;;;;;;;5049756;28;20430;-75
2021/05/01 14:22:23;;;;;;;0.60;0.50;;;;;;;;;;5044251;28;20427;-73
2021/05/01 14:24:49;;;;;;;0.60;0.50;;;;;;;;;;5051290;28;20431;-74
2021/05/01 14:27:16;;;;;;;0.60;0.50;;;;;;;;;;5050485;28;20470;-74
2021/05/01 14:29:59;;;;;;;0.60;0.40;;;;;;;;;;5050248;28;20482;-74
2021/05/01 14:32:25;;;;;;;0.60;0.50;;;;;;;;;;5039715;28;20510;-74
2021/05/01 14:34:59;;;;;;;0.60;0.50;;;;;;;;;;5049864;28;20954;-74
2021/05/01 14:37:25;;;;;;;0.60;0.50;;;;;;;;;;5050002;28;20875;-74
2021/05/01 14:39:52;;;;;;;0.60;0.60;;;;;;;;;;5038698;28;20412;-74
2021/05/01 14:42:19;;;;;;;0.60;0.50;;;;;;;;;;5031291;28;20889;-74
2021/05/01 14:44:46;;;;;;;0.60;0.60;;;;;;;;;;5037414;28;20439;-74
2021/05/01 14:47:31;;;;;;;0.60;0.50;;;;;;;;;;5046747;28;20965;-74
2021/05/01 14:49:57;;;;;;;0.60;0.50;;;;;;;;;;5054944;28;20420;-73
2021/05/01 14:52:30;;;;;;;0.60;0.50;;;;;;;;;;5052221;28;20539;-72
2021/05/01 14:54:58;;;;;;;0.60;0.50;;;;;;;;;;5044005;28;20459;-74
2021/05/01 14:57:31;;;;;;;0.60;0.50;;;;;;;;;;5049238;28;20491;-72
2021/05/01 14:59:59;;;;;;;0.60;0.50;;;;;;;;;;5050687;28;20944;-73
2021/05/01 15:02:29;;;;;;;0.60;0.50;;;;;;;;;;5052665;28;20460;-72
2021/05/01 15:04:58;;;;;;;0.60;0.50;;;;;;;;;;5055183;28;20464;-73
2021/05/01 15:07:26;;;;;;;0.60;0.50;;;;;;;;;;5066790;23;20501;-70
2021/05/01 15:09:53;;;;;;;0.60;0.50;;;;;;;;;;5047917;28;20411;-72
2021/05/01 15:12:19;;;;;;;0.60;0.50;;;;;;;;;;5054567;28;20434;-71
2021/05/01 15:14:57;;;;;;;0.60;0.50;;;;;;;;;;5056751;28;20517;-71
2021/05/01 15:17:43;;;;;;;0.60;0.50;;;;;;;;;;5054106;28;20434;-71
2021/05/01 15:20:16;;;;;;;0.60;0.50;;;;;;;;;;5055874;28;20774;-71
2021/05/01 15:22:43;;;;;;;0.60;0.50;;;;;;;;;;5055314;28;20434;-71
2021/05/01 15:25:09;;;;;;;0.60;0.50;;;;;;;;;;5055066;28;20404;-71
2021/05/01 15:27:35;;;;;;;0.60;0.50;;;;;;;;;;5052728;28;20455;-72
2021/05/01 15:30:23;;;;;;;0.60;0.50;;;;;;;;;;5059634;28;20843;-71
2021/05/01 15:32:50;;;;;;;0.60;0.50;;;;;;;;;;5070212;28;20840;-71
2021/05/01 15:35:17;;;;;;;0.60;0.50;;;;;;;;;;5054166;28;20871;-71
2021/05/01 15:37:43;;;;;;;0.60;0.50;;;;;;;;;;5053292;28;20976;-70
2021/05/01 15:40:10;;;;;;;1.63;0.83;;;;;;;;;;5054946;28;20451;-67
2021/05/01 15:42:36;;;;;;;0.60;0.40;;;;;;;;;;5054002;28;20787;-70
2021/05/01 15:45:03;;;;;;;0.60;0.50;;;;;;;;;;5054435;28;20408;-61
2021/05/01 15:47:29;;;;;;;0.60;0.40;;;;;;;;;;5054208;28;20425;-71
2021/05/01 15:49:55;;;;;;;0.60;0.40;;;;;;;;;;5054622;28;20462;-71
2021/05/01 15:52:21;;;;;;;0.60;0.50;;;;;;;;;;5053674;28;20787;-71
2021/05/01 15:54:49;;;;;;;0.60;0.50;;;;;;;;;;5054670;28;20497;-72
2021/05/01 15:57:15;;;;;;;0.60;0.50;;;;;;;;;;5053270;28;20450;-73
2021/05/01 15:59:41;;;;;;;0.60;0.50;;;;;;;;;;5054013;28;20416;-73
2021/05/01 16:02:08;;;;;;;0.67;0.67;;;;;;;;;;5053394;28;20910;-72
2021/05/01 16:04:33;;;;;;;0.60;0.60;;;;;;;;;;5053406;28;20471;-72
2021/05/01 16:06:59;;;;;;;0.60;0.50;;;;;;;;;;5052359;28;20986;-72
2021/05/01 16:09:26;;;;;;;0.60;0.50;;;;;;;;;;5053504;28;20441;-72
2021/05/01 16:11:52;;;;;;;0.60;0.50;;;;;;;;;;5059814;28;20878;-72
2021/05/01 16:14:18;;;;;;;0.60;0.50;;;;;;;;;;5072643;28;20420;-72
2021/05/01 16:16:45;;;;;;;0.60;0.50;;;;;;;;;;5055460;28;20439;-73
2021/05/01 16:19:11;;;;;;;0.60;0.50;;;;;;;;;;5053938;28;20419;-72
2021/05/01 16:21:38;;;;;;;0.60;0.50;;;;;;;;;;5053523;28;20500;-72
2021/05/01 16:24:04;;;;;;;0.60;0.50;;;;;;;;;;5051351;28;21137;-72
2021/05/01 16:26:30;;;;;;;0.60;0.50;;;;;;;;;;5054059;28;20422;-71
2021/05/01 16:28:56;;;;;;;0.60;0.60;;;;;;;;;;5053351;28;20425;-71
2021/05/01 16:31:22;;;;;;;0.60;0.50;;;;;;;;;;5050843;28;20413;-71
2021/05/01 16:33:48;;;;;;;0.60;0.50;;;;;;;;;;5054302;28;20404;-71
2021/05/01 16:36:14;;;;;;;0.60;0.50;;;;;;;;;;5053168;28;20447;-71
2021/05/01 16:38:40;;;;;;;0.60;0.50;;;;;;;;;;5052335;28;20491;-74
2021/05/01 16:41:06;;;;;;;0.60;0.50;;;;;;;;;;5052016;28;20455;-73
2021/05/01 16:43:32;;;;;;;0.60;0.60;;;;;;;;;;5054612;28;20419;-73
2021/05/01 16:45:58;;;;;;;0.60;0.60;;;;;;;;;;5056335;28;20435;-72
2021/05/01 16:48:24;;;;;;;0.67;0.67;;;;;;;;;;5052873;28;20431;-72
2021/05/01 16:50:50;;;;;;;0.60;0.60;;;;;;;;;;5053122;28;20412;-73
2021/05/01 16:53:16;;;;;;;0.60;0.60;;;;;;;;;;5053069;28;20432;-72
2021/05/01 16:55:42;;;;;;;0.60;0.50;;;;;;;;;;5052883;28;20485;-73
2021/05/01 16:58:09;;;;;;;0.60;0.60;;;;;;;;;;5052894;28;20505;-71
2021/05/01 17:00:35;;;;;;;0.67;0.67;;;;;;;;;;5053157;28;20407;-72
2021/05/01 17:03:01;;;;;;;0.70;0.60;;;;;;;;;;5051099;28;20447;-72
2021/05/01 17:05:27;;;;;;;0.70;0.60;;;;;;;;;;5052975;28;20444;-71
2021/05/01 17:07:53;;;;;;;0.70;0.60;;;;;;;;;;5051044;28;20528;-72
2021/05/01 17:10:19;;;;;;;0.70;0.60;;;;;;;;;;5051458;28;20455;-75
2021/05/01 17:12:45;;;;;;;0.70;0.60;;;;;;;;;;5052771;28;20792;-73
2021/05/01 17:15:11;;;;;;;0.73;0.73;;;;;;;;;;5052950;28;20466;-75
2021/05/01 17:17:38;;;;;;;0.70;0.60;;;;;;;;;;5051366;28;20208;-75
2021/05/01 17:20:07;;;;;;;1.05;1.05;;;;;;;;;;5050583;28;20191;-74
2021/05/01 17:22:33;;;;;;;0.70;0.60;;;;;;;;;;5040954;28;20548;-73
2021/05/01 17:24:59;;;;;;;0.70;0.60;;;;;;;;;;5053807;28;20646;-73
2021/05/01 17:27:25;;;;;;;0.70;0.60;;;;;;;;;;5052067;28;20202;-74
2021/05/01 17:29:51;;;;;;;0.70;0.60;;;;;;;;;;5054084;28;20262;-75
2021/05/01 17:32:17;;;;;;;0.70;0.60;;;;;;;;;;5053734;28;20519;-74
2021/05/01 17:34:43;;;;;;;0.70;0.60;;;;;;;;;;5053217;28;20179;-73
2021/05/01 17:37:09;;;;;;;0.70;0.60;;;;;;;;;;5050856;28;20428;-73
2021/05/01 17:39:35;;;;;;;0.70;0.60;;;;;;;;;;5051329;28;20421;-73
2021/05/01 17:42:01;;;;;;;0.70;0.60;;;;;;;;;;5071706;28;20190;-74
2021/05/01 17:44:27;;;;;;;0.70;0.60;;;;;;;;;;5071780;28;20452;-74
2021/05/01 17:46:53;;;;;;;0.70;0.60;;;;;;;;;;5052731;28;20193;-75
2021/05/01 17:49:19;;;;;;;0.70;0.60;;;;;;;;;;5052990;28;20641;-75
2021/05/01 17:51:45;;;;;;;0.70;0.60;;;;;;;;;;5052960;28;20170;-74
2021/05/01 17:54:11;;;;;;;0.70;0.60;;;;;;;;;;5052964;28;20431;-73
2021/05/01 17:56:38;;;;;;;0.70;0.60;;;;;;;;;;5055989;28;20417;-72
2021/05/01 17:59:04;;;;;;;0.70;0.70;;;;;;;;;;5052949;28;20412;-74
2021/05/01 18:01:31;;;;;;;0.70;0.70;;;;;;;;;;5049343;28;20217;-74
2021/05/01 18:03:57;;;;;;;0.70;0.60;;;;;;;;;;5050372;28;20194;-74
2021/05/01 18:06:24;;;;;;;0.70;0.60;;;;;;;;;;5052665;28;20227;-74
2021/05/01 18:08:50;;;;;;;0.70;0.60;;;;;;;;;;5049665;28;20197;-74
2021/05/01 18:11:16;;;;;;;0.70;0.60;;;;;;;;;;5049499;28;20649;-73
2021/05/01 18:13:42;;;;;;;0.70;0.60;;;;;;;;;;5049892;28;20189;-74
2021/05/01 18:16:08;;;;;;;0.70;0.60;;;;;;;;;;5049695;28;20209;-76
2021/05/01 18:18:34;;;;;;;0.70;0.60;;;;;;;;;;5051637;28;20204;-75
2021/05/01 18:21:00;;;;;;;0.70;0.60;;;;;;;;;;5047460;28;20417;-76
2021/05/01 18:23:26;;;;;;;0.70;0.70;;;;;;;;;;5050574;28;20178;-75
2021/05/01 18:26:08;;;;;;;0.70;0.60;;;;;;;;;;5050413;28;20188;-75
2021/05/01 18:28:34;;;;;;;0.70;0.70;;;;;;;;;;5049493;28;20767;-75
2021/05/01 18:31:01;;;;;;;0.80;0.80;;;;;;;;;;5048986;28;20189;-77
2021/05/01 18:33:27;;;;;;;0.80;0.60;;;;;;;;;;5050813;28;20443;-75
2021/05/01 18:35:56;;;;;;;0.80;0.68;;;;;;;;;;5051346;28;20331;-75
2021/05/01 18:38:23;;;;;;;0.80;0.60;;;;;;;;;;5050827;28;20213;-74
2021/05/01 18:40:49;;;;;;;0.80;0.70;;;;;;;;;;5046740;28;20178;-76
2021/05/01 18:43:15;;;;;;;0.80;0.60;;;;;;;;;;5042984;28;20183;-76
2021/05/01 18:45:42;;;;;;;0.80;0.70;;;;;;;;;;5050004;28;20781;-75
2021/05/01 18:48:08;;;;;;;3.10;1.25;;;;;;;;;;5052123;28;20212;-75
2021/05/01 18:50:34;;;;;;;2.00;1.90;;;;;;;;;;5051632;28;20209;-74
2021/05/01 18:53:00;;;;;;;2.78;2.58;;;;;;;;;;5051018;28;20580;-75
2021/05/01 18:55:26;;;;;;;1.95;1.85;;;;;;;;;;5050217;28;20193;-75
2021/05/01 18:57:52;;;;;;;1.35;1.25;;;;;;;;;;5050262;28;20201;-76
2021/05/01 19:00:19;;;;;;;1.00;0.90;;;;;;;;;;5050994;28;20186;-75
2021/05/01 19:02:58;;;;;;;0.80;0.80;;;;;;;;;;5057061;28;20177;-75
2021/05/01 19:05:25;;;;;;;0.80;0.60;;;;;;;;;;5051652;28;20287;-75
2021/05/01 19:07:51;;;;;;;0.90;0.70;;;;;;;;;;5051091;28;20213;-75
2021/05/01 19:10:18;;;;;;;0.90;0.80;;;;;;;;;;5050888;28;20189;-75
2021/05/01 19:12:51;;;;;;;0.98;0.88;;;;;;;;;;5050301;28;20264;-74
2021/05/01 19:15:17;;;;;;;0.90;0.70;;;;;;;;;;5050889;28;20272;-74
2021/05/01 19:17:45;;;;;;;2.05;1.95;;;;;;;;;;5052576;28;20202;-76
2021/05/01 19:20:12;;;;;;;1.55;1.45;;;;;;;;;;5050556;28;20557;-74
2021/05/01 19:22:39;;;;;;;1.38;1.27;;;;;;;;;;5051302;28;20185;-75
2021/05/01 19:25:06;;;;;;;1.55;1.45;;;;;;;;;;5052653;28;20262;-75
2021/05/01 19:27:32;;;;;;;1.38;1.27;;;;;;;;;;5051429;28;20197;-76
2021/05/01 19:30:00;;;;;;;0.90;0.75;;;;;;;;;;5045532;28;20212;-75
2021/05/01 19:32:27;;;;;;;0.90;0.70;;;;;;;;;;5053087;28;20645;-75
2021/05/01 19:34:53;;;;;;;1.00;0.90;;;;;;;;;;5054530;28;20189;-74
2021/05/01 19:37:20;;;;;;;0.90;0.70;;;;;;;;;;5054775;28;20197;-73
2021/05/01 19:39:46;;;;;;;0.90;0.60;;;;;;;;;;5054272;28;20193;-75
2021/05/01 19:42:16;;;;;;;0.90;0.70;;;;;;;;;;5052708;28;20648;-74
2021/05/01 19:44:45;;;;;;;0.90;0.70;;;;;;;;;;5053909;28;20472;-75
2021/05/01 19:47:11;;;;;;;0.90;0.80;;;;;;;;;;5054657;28;20225;-75
2021/05/01 19:49:37;;;;;;;0.90;0.70;;;;;;;;;;5054491;28;20691;-75
2021/05/01 19:52:04;;;;;;;0.90;0.60;;;;;;;;;;5055195;28;20181;-75
2021/05/01 19:54:30;;;;;;;0.90;0.70;;;;;;;;;;5052134;28;20469;-75
2021/05/01 19:56:56;;;;;;;0.90;0.70;;;;;;;;;;5054904;28;20614;-77
2021/05/01 19:59:22;;;;;;;0.90;0.70;;;;;;;;;;5057342;28;20437;-76
2021/05/01 20:01:48;;;;;;;0.90;0.70;;;;;;;;;;5053501;28;20185;-74
2021/05/01 20:04:19;;;;;;;0.90;0.70;;;;;;;;;;5053752;28;20723;-74
2021/05/01 20:06:45;;;;;;;0.90;0.60;;;;;;;;;;5052240;28;20228;-73
2021/05/01 20:09:11;;;;;;;0.90;0.70;;;;;;;;;;5049721;28;20238;-73
2021/05/01 20:11:37;;;;;;;0.90;0.60;;;;;;;;;;5050609;28;20185;-73
2021/05/01 20:14:03;;;;;;;0.90;0.60;;;;;;;;;;5054118;28;20177;-73
2021/05/01 20:16:29;;;;;;;0.90;0.70;;;;;;;;;;5053649;28;20185;-73
2021/05/01 20:18:57;;;;;;;0.90;0.70;;;;;;;;;;5052143;28;20204;-74
2021/05/01 20:21:23;;;;;;;0.90;0.80;;;;;;;;;;5054085;28;20451;-72
2021/05/01 20:23:49;;;;;;;0.90;0.70;;;;;;;;;;5053888;28;20667;-71
2021/05/01 20:26:15;;;;;;;0.90;0.68;;;;;;;;;;5056022;28;20198;-72
2021/05/01 20:28:41;;;;;;;0.90;0.70;;;;;;;;;;5057044;28;20197;-72
2021/05/01 20:31:08;;;;;;;0.90;0.70;;;;;;;;;;5053864;28;20831;-72
2021/05/01 20:33:34;;;;;;;0.90;0.70;;;;;;;;;;5054856;28;20207;-71
2021/05/01 20:36:00;;;;;;;0.90;0.70;;;;;;;;;;5052606;28;20194;-72
2021/05/01 20:38:28;;;;;;;0.90;0.70;;;;;;;;;;5051203;28;20451;-72
2021/05/01 20:40:54;;;;;;;1.10;0.93;;;;;;;;;;5052966;28;20193;-73
2021/05/01 20:43:21;;;;;;;0.90;0.70;;;;;;;;;;5054547;28;20543;-73
2021/05/01 20:45:47;;;;;;;0.90;0.70;;;;;;;;;;5052658;28;20202;-71
2021/05/01 20:48:13;;;;;;;0.90;0.80;;;;;;;;;;5053115;28;20197;-72
2021/05/01 20:50:39;;;;;;;0.90;0.70;;;;;;;;;;5052622;28;20440;-72
2021/05/01 20:53:05;;;;;;;0.90;0.70;;;;;;;;;;5045674;28;20197;-73
2021/05/01 20:55:32;;;;;;;0.90;0.70;;;;;;;;;;5038653;28;20248;-73
2021/05/01 20:57:58;;;;;;;0.90;0.70;;;;;;;;;;5050240;28;20209;-72
2021/05/01 21:00:24;;;;;;;0.90;0.70;;;;;;;;;;5052744;28;20182;-73
2021/05/01 21:02:50;;;;;;;0.90;0.70;;;;;;;;;;5052977;28;20596;-73
2021/05/01 21:05:16;;;;;;;0.90;0.70;;;;;;;;;;5043976;28;20228;-74
2021/05/01 21:07:42;;;;;;;0.90;0.70;;;;;;;;;;5107096;22;20232;-79
2021/05/01 21:10:09;;;;;;;0.90;0.70;;;;;;;;;;5030960;28;20186;-77
2021/05/01 21:12:35;;;;;;;1.00;0.70;;;;;;;;;;5030329;28;20797;-76
2021/05/01 21:15:01;;;;;;;1.00;0.70;;;;;;;;;;5032729;28;20189;-76
2021/05/01 21:17:27;;;;;;;1.10;0.90;;;;;;;;;;5031517;28;20209;-76